sensor_id;sensor_type;location;lat;lon;timestamp;pressure;altitude;pressure_sealevel;temperature;humidity
4415;BME280;2220;42.670;23.398;2023-04-23T00:02:09;92764.81;;;8.50;100.00
4415;BME280;2220;42.670;23.398;2023-04-23T00:04:36;92775.19;;;8.50;100.00
4415;BME280;2220;42.670;23.398;2023-04-23T00:07:03;92783.56;;;8.60;100.00
4415;BME280;2220;42.670;23.398;2023-04-23T00:09:30;92808.66;;;8.51;100.00
4415;BME280;2220;42.670;23.398;2023-04-23T00:11:58;92817.97;;;8.52;100.00
4415;BME280;2220;42.670;23.398;2023-04-23T00:14:24;92827.22;;;8.58;100.00
4415;BME280;2220;42.670;23.398;2023-04-23T00:16:51;92841.41;;;8.61;100.00
4415;BME280;2220;42.670;23.398;2023-04-23T00:19:16;92858.06;;;8.60;100.00
4415;BME280;2220;42.670;23.398;2023-04-23T00:21:41;92864.09;;;8.55;100.00
4415;BME280;2220;42.670;23.398;2023-04-23T00:24:07;92881.50;;;8.55;100.00
4415;BME280;2220;42.670;23.398;2023-04-23T00:26:32;92895.91;;;8.47;100.00
4415;BME280;2220;42.670;23.398;2023-04-23T00:28:58;92889.16;;;8.46;100.00
4415;BME280;2220;42.670;23.398;2023-04-23T00:31:23;92887.06;;;8.48;100.00
4415;BME280;2220;42.670;23.398;2023-04-23T00:33:51;92891.84;;;8.41;100.00
4415;BME280;2220;42.670;23.398;2023-04-23T00:36:17;92888.81;;;8.34;100.00
4415;BME280;2220;42.670;23.398;2023-04-23T00:38:43;92874.84;;;8.35;100.00
4415;BME280;2220;42.670;23.398;2023-04-23T00:41:09;92873.03;;;8.35;100.00
4415;BME280;2220;42.670;23.398;2023-04-23T00:43:35;92865.75;;;8.32;100.00
4415;BME280;2220;42.670;23.398;2023-04-23T00:46:02;92866.00;;;8.36;100.00
4415;BME280;2220;42.670;23.398;2023-04-23T00:48:27;92865.25;;;8.35;100.00
4415;BME280;2220;42.670;23.398;2023-04-23T00:50:58;92871.72;;;8.33;100.00
4415;BME280;2220;42.670;23.398;2023-04-23T00:53:25;92869.31;;;8.23;100.00
4415;BME280;2220;42.670;23.398;2023-04-23T00:55:51;92876.63;;;8.21;100.00
4415;BME280;2220;42.670;23.398;2023-04-23T00:58:17;92875.16;;;8.14;100.00
4415;BME280;2220;42.670;23.398;2023-04-23T01:00:45;92884.84;;;8.09;100.00
4415;BME280;2220;42.670;23.398;2023-04-23T01:03:12;92890.66;;;8.01;100.00
4415;BME280;2220;42.670;23.398;2023-04-23T01:05:40;92873.78;;;8.03;100.00
4415;BME280;2220;42.670;23.398;2023-04-23T01:08:06;92875.00;;;7.92;100.00
4415;BME280;2220;42.670;23.398;2023-04-23T01:10:33;92864.25;;;7.99;100.00
4415;BME280;2220;42.670;23.398;2023-04-23T01:12:58;92876.41;;;7.84;100.00
4415;BME280;2220;42.670;23.398;2023-04-23T01:15:24;92864.72;;;7.87;100.00
4415;BME280;2220;42.670;23.398;2023-04-23T01:17:49;92869.38;;;7.71;100.00
4415;BME280;2220;42.670;23.398;2023-04-23T01:20:16;92861.47;;;7.63;100.00
4415;BME280;2220;42.670;23.398;2023-04-23T01:22:41;92851.47;;;7.56;100.00
4415;BME280;2220;42.670;23.398;2023-04-23T01:25:07;92844.34;;;7.48;100.00
4415;BME280;2220;42.670;23.398;2023-04-23T01:27:33;92839.06;;;7.53;100.00
4415;BME280;2220;42.670;23.398;2023-04-23T01:30:02;92836.41;;;7.58;100.00
4415;BME280;2220;42.670;23.398;2023-04-23T01:32:29;92830.44;;;7.57;100.00
4415;BME280;2220;42.670;23.398;2023-04-23T01:34:56;92835.06;;;7.61;100.00
4415;BME280;2220;42.670;23.398;2023-04-23T01:37:22;92841.78;;;7.62;100.00
4415;BME280;2220;42.670;23.398;2023-04-23T01:39:49;92838.44;;;7.42;100.00
4415;BME280;2220;42.670;23.398;2023-04-23T01:42:14;92823.59;;;7.48;100.00
4415;BME280;2220;42.670;23.398;2023-04-23T01:44:41;92810.88;;;7.33;100.00
4415;BME280;2220;42.670;23.398;2023-04-23T01:47:06;92793.03;;;7.31;100.00
4415;BME280;2220;42.670;23.398;2023-04-23T01:49:32;92776.94;;;7.34;100.00
4415;BME280;2220;42.670;23.398;2023-04-23T01:51:57;92770.56;;;7.26;100.00
4415;BME280;2220;42.670;23.398;2023-04-23T01:54:23;92751.22;;;7.38;100.00
4415;BME280;2220;42.670;23.398;2023-04-23T01:56:48;92742.22;;;7.35;100.00
4415;BME280;2220;42.670;23.398;2023-04-23T01:59:14;92749.16;;;7.21;100.00
4415;BME280;2220;42.670;23.398;2023-04-23T02:01:49;92740.78;;;7.10;100.00
4415;BME280;2220;42.670;23.398;2023-04-23T02:04:15;92709.56;;;7.20;100.00
4415;BME280;2220;42.670;23.398;2023-04-23T02:06:42;92703.41;;;7.16;100.00
4415;BME280;2220;42.670;23.398;2023-04-23T02:09:08;92690.84;;;7.10;100.00
4415;BME280;2220;42.670;23.398;2023-04-23T02:11:33;92677.13;;;7.09;100.00
4415;BME280;2220;42.670;23.398;2023-04-23T02:14:00;92674.19;;;6.97;100.00
4415;BME280;2220;42.670;23.398;2023-04-23T02:16:26;92646.50;;;6.97;100.00
4415;BME280;2220;42.670;23.398;2023-04-23T02:18:53;92627.06;;;7.00;100.00
4415;BME280;2220;42.670;23.398;2023-04-23T02:21:19;92610.59;;;7.10;100.00
4415;BME280;2220;42.670;23.398;2023-04-23T02:23:45;92603.94;;;7.04;100.00
4415;BME280;2220;42.670;23.398;2023-04-23T02:26:10;92602.22;;;6.99;100.00
4415;BME280;2220;42.670;23.398;2023-04-23T02:28:36;92588.91;;;7.06;100.00
4415;BME280;2220;42.670;23.398;2023-04-23T02:31:01;92578.53;;;7.06;100.00
4415;BME280;2220;42.670;23.398;2023-04-23T02:33:27;92572.88;;;7.04;100.00
4415;BME280;2220;42.670;23.398;2023-04-23T02:35:52;92557.75;;;7.11;100.00
4415;BME280;2220;42.670;23.398;2023-04-23T02:38:18;92557.56;;;7.07;100.00
4415;BME280;2220;42.670;23.398;2023-04-23T02:40:43;92550.47;;;7.13;100.00
4415;BME280;2220;42.670;23.398;2023-04-23T02:43:09;92545.88;;;7.10;100.00
4415;BME280;2220;42.670;23.398;2023-04-23T02:45:34;92548.28;;;7.06;100.00
4415;BME280;2220;42.670;23.398;2023-04-23T02:47:59;92558.78;;;6.96;100.00
4415;BME280;2220;42.670;23.398;2023-04-23T02:50:25;92570.25;;;6.76;100.00
4415;BME280;2220;42.670;23.398;2023-04-23T02:52:50;92564.63;;;6.74;100.00
4415;BME280;2220;42.670;23.398;2023-04-23T02:55:16;92566.03;;;6.80;100.00
4415;BME280;2220;42.670;23.398;2023-04-23T02:57:41;92565.84;;;6.77;100.00
4415;BME280;2220;42.670;23.398;2023-04-23T03:00:08;92555.56;;;6.71;100.00
4415;BME280;2220;42.670;23.398;2023-04-23T03:02:33;92557.72;;;6.83;100.00
4415;BME280;2220;42.670;23.398;2023-04-23T03:04:59;92556.84;;;6.74;100.00
4415;BME280;2220;42.670;23.398;2023-04-23T03:07:25;92550.53;;;6.80;100.00
4415;BME280;2220;42.670;23.398;2023-04-23T03:09:50;92553.31;;;6.84;100.00
4415;BME280;2220;42.670;23.398;2023-04-23T03:12:15;92549.97;;;6.83;100.00
4415;BME280;2220;42.670;23.398;2023-04-23T03:14:42;92545.19;;;6.90;100.00
4415;BME280;2220;42.670;23.398;2023-04-23T03:17:08;92550.91;;;6.87;100.00
4415;BME280;2220;42.670;23.398;2023-04-23T03:19:34;92556.56;;;6.89;100.00
4415;BME280;2220;42.670;23.398;2023-04-23T03:21:59;92568.72;;;6.75;100.00
4415;BME280;2220;42.670;23.398;2023-04-23T03:24:27;92569.28;;;6.72;100.00
4415;BME280;2220;42.670;23.398;2023-04-23T03:26:56;92566.69;;;6.72;100.00
4415;BME280;2220;42.670;23.398;2023-04-23T03:29:22;92573.50;;;6.68;100.00
4415;BME280;2220;42.670;23.398;2023-04-23T03:31:48;92575.31;;;6.67;100.00
4415;BME280;2220;42.670;23.398;2023-04-23T03:34:13;92577.50;;;6.60;100.00
4415;BME280;2220;42.670;23.398;2023-04-23T03:36:39;92573.38;;;6.59;100.00
4415;BME280;2220;42.670;23.398;2023-04-23T03:39:04;92579.97;;;6.52;100.00
4415;BME280;2220;42.670;23.398;2023-04-23T03:41:30;92583.31;;;6.52;100.00
4415;BME280;2220;42.670;23.398;2023-04-23T03:43:55;92577.97;;;6.62;100.00
4415;BME280;2220;42.670;23.398;2023-04-23T03:46:21;92577.91;;;6.67;100.00
4415;BME280;2220;42.670;23.398;2023-04-23T03:48:46;92571.88;;;6.72;100.00
4415;BME280;2220;42.670;23.398;2023-04-23T03:51:12;92569.41;;;6.81;100.00
4415;BME280;2220;42.670;23.398;2023-04-23T03:53:37;92565.88;;;6.90;100.00
4415;BME280;2220;42.670;23.398;2023-04-23T03:56:03;92563.50;;;6.94;100.00
4415;BME280;2220;42.670;23.398;2023-04-23T03:58:28;92584.25;;;6.89;100.00
4415;BME280;2220;42.670;23.398;2023-04-23T04:00:54;92586.97;;;6.84;100.00
4415;BME280;2220;42.670;23.398;2023-04-23T04:03:20;92578.53;;;6.92;100.00
4415;BME280;2220;42.670;23.398;2023-04-23T04:05:45;92588.72;;;7.02;100.00
4415;BME280;2220;42.670;23.398;2023-04-23T04:08:11;92605.38;;;6.96;100.00
4415;BME280;2220;42.670;23.398;2023-04-23T04:10:36;92610.94;;;7.03;100.00
4415;BME280;2220;42.670;23.398;2023-04-23T04:13:02;92611.44;;;7.05;100.00
4415;BME280;2220;42.670;23.398;2023-04-23T04:15:27;92618.25;;;7.01;100.00
4415;BME280;2220;42.670;23.398;2023-04-23T04:17:53;92631.75;;;6.98;100.00
4415;BME280;2220;42.670;23.398;2023-04-23T04:20:18;92634.34;;;6.98;100.00
4415;BME280;2220;42.670;23.398;2023-04-23T04:22:44;92638.06;;;7.06;100.00
4415;BME280;2220;42.670;23.398;2023-04-23T04:25:10;92631.28;;;7.10;100.00
4415;BME280;2220;42.670;23.398;2023-04-23T04:27:36;92651.44;;;7.13;100.00
4415;BME280;2220;42.670;23.398;2023-04-23T04:30:03;92660.72;;;7.14;100.00
4415;BME280;2220;42.670;23.398;2023-04-23T04:32:30;92651.44;;;7.13;100.00
4415;BME280;2220;42.670;23.398;2023-04-23T04:34:56;92654.72;;;7.18;100.00
4415;BME280;2220;42.670;23.398;2023-04-23T04:37:21;92655.59;;;7.27;100.00
4415;BME280;2220;42.670;23.398;2023-04-23T04:39:47;92650.50;;;7.36;100.00
4415;BME280;2220;42.670;23.398;2023-04-23T04:42:12;92655.53;;;7.46;100.00
4415;BME280;2220;42.670;23.398;2023-04-23T04:44:38;92673.28;;;7.39;100.00
4415;BME280;2220;42.670;23.398;2023-04-23T04:47:04;92675.00;;;7.44;100.00
4415;BME280;2220;42.670;23.398;2023-04-23T04:49:32;92682.00;;;7.43;100.00
4415;BME280;2220;42.670;23.398;2023-04-23T04:51:57;92690.53;;;7.44;100.00
4415;BME280;2220;42.670;23.398;2023-04-23T04:54:23;92690.16;;;7.50;100.00
4415;BME280;2220;42.670;23.398;2023-04-23T04:56:48;92691.75;;;7.79;100.00
4415;BME280;2220;42.670;23.398;2023-04-23T04:59:14;92716.19;;;7.73;100.00
4415;BME280;2220;42.670;23.398;2023-04-23T05:01:39;92731.34;;;7.66;100.00
4415;BME280;2220;42.670;23.398;2023-04-23T05:04:05;92742.28;;;7.63;100.00
4415;BME280;2220;42.670;23.398;2023-04-23T05:06:30;92729.63;;;7.75;100.00
4415;BME280;2220;42.670;23.398;2023-04-23T05:08:57;92723.69;;;8.02;100.00
4415;BME280;2220;42.670;23.398;2023-04-23T05:11:22;92731.00;;;8.13;100.00
4415;BME280;2220;42.670;23.398;2023-04-23T05:13:48;92745.59;;;7.96;100.00
4415;BME280;2220;42.670;23.398;2023-04-23T05:16:13;92743.28;;;8.08;100.00
4415;BME280;2220;42.670;23.398;2023-04-23T05:18:40;92747.03;;;8.29;100.00
4415;BME280;2220;42.670;23.398;2023-04-23T05:21:06;92754.94;;;8.52;100.00
4415;BME280;2220;42.670;23.398;2023-04-23T05:23:35;92780.19;;;8.46;100.00
4415;BME280;2220;42.670;23.398;2023-04-23T05:26:00;92813.41;;;8.17;100.00
4415;BME280;2220;42.670;23.398;2023-04-23T05:28:28;92802.34;;;7.97;100.00
4415;BME280;2220;42.670;23.398;2023-04-23T05:30:53;92795.31;;;7.98;100.00
4415;BME280;2220;42.670;23.398;2023-04-23T05:33:19;92800.03;;;7.96;100.00
4415;BME280;2220;42.670;23.398;2023-04-23T05:35:44;92802.22;;;7.89;100.00
4415;BME280;2220;42.670;23.398;2023-04-23T05:38:10;92788.16;;;8.22;100.00
4415;BME280;2220;42.670;23.398;2023-04-23T05:40:35;92794.69;;;8.33;100.00
4415;BME280;2220;42.670;23.398;2023-04-23T05:43:01;92798.06;;;8.48;100.00
4415;BME280;2220;42.670;23.398;2023-04-23T05:45:27;92822.44;;;8.33;100.00
4415;BME280;2220;42.670;23.398;2023-04-23T05:47:52;92823.25;;;8.47;100.00
4415;BME280;2220;42.670;23.398;2023-04-23T05:50:19;92836.44;;;8.51;100.00
4415;BME280;2220;42.670;23.398;2023-04-23T05:52:44;92847.47;;;8.43;100.00
4415;BME280;2220;42.670;23.398;2023-04-23T05:55:10;92833.81;;;8.78;100.00
4415;BME280;2220;42.670;23.398;2023-04-23T05:57:36;92842.97;;;8.76;100.00
4415;BME280;2220;42.670;23.398;2023-04-23T06:00:04;92869.00;;;8.71;100.00
4415;BME280;2220;42.670;23.398;2023-04-23T06:02:30;92867.56;;;8.92;100.00
4415;BME280;2220;42.670;23.398;2023-04-23T06:04:58;92872.63;;;9.11;100.00
4415;BME280;2220;42.670;23.398;2023-04-23T06:07:23;92869.16;;;9.15;100.00
4415;BME280;2220;42.670;23.398;2023-04-23T06:09:49;92882.00;;;9.48;100.00
4415;BME280;2220;42.670;23.398;2023-04-23T06:12:14;92912.19;;;9.44;100.00
4415;BME280;2220;42.670;23.398;2023-04-23T06:14:40;92927.41;;;9.50;100.00
4415;BME280;2220;42.670;23.398;2023-04-23T06:17:05;92928.59;;;9.67;100.00
4415;BME280;2220;42.670;23.398;2023-04-23T06:19:31;92948.47;;;9.85;100.00
4415;BME280;2220;42.670;23.398;2023-04-23T06:21:56;92980.63;;;10.03;100.00
4415;BME280;2220;42.670;23.398;2023-04-23T06:24:22;93003.75;;;9.91;100.00
4415;BME280;2220;42.670;23.398;2023-04-23T06:26:47;93016.81;;;10.13;100.00
4415;BME280;2220;42.670;23.398;2023-04-23T06:29:13;93040.09;;;10.32;100.00
4415;BME280;2220;42.670;23.398;2023-04-23T06:31:38;93058.31;;;10.54;100.00
4415;BME280;2220;42.670;23.398;2023-04-23T06:34:05;93102.25;;;10.70;100.00
4415;BME280;2220;42.670;23.398;2023-04-23T06:36:31;93139.63;;;10.74;100.00
4415;BME280;2220;42.670;23.398;2023-04-23T06:38:56;93167.41;;;10.78;100.00
4415;BME280;2220;42.670;23.398;2023-04-23T06:41:21;93176.94;;;11.05;100.00
4415;BME280;2220;42.670;23.398;2023-04-23T06:43:47;93212.72;;;11.36;100.00
4415;BME280;2220;42.670;23.398;2023-04-23T06:46:13;93261.31;;;11.54;100.00
4415;BME280;2220;42.670;23.398;2023-04-23T06:48:39;93312.31;;;11.24;100.00
4415;BME280;2220;42.670;23.398;2023-04-23T06:51:04;93301.28;;;11.27;100.00
4415;BME280;2220;42.670;23.398;2023-04-23T06:53:30;93291.75;;;11.45;100.00
4415;BME280;2220;42.670;23.398;2023-04-23T06:55:56;93322.53;;;11.57;100.00
4415;BME280;2220;42.670;23.398;2023-04-23T06:58:21;93347.84;;;11.56;100.00
4415;BME280;2220;42.670;23.398;2023-04-23T07:00:51;93359.56;;;11.81;100.00
4415;BME280;2220;42.670;23.398;2023-04-23T07:03:17;93375.00;;;11.41;100.00
4415;BME280;2220;42.670;23.398;2023-04-23T07:05:43;93339.09;;;11.74;100.00
4415;BME280;2220;42.670;23.398;2023-04-23T07:08:08;93385.13;;;11.93;100.00
4415;BME280;2220;42.670;23.398;2023-04-23T07:10:34;93432.56;;;12.17;100.00
4415;BME280;2220;42.670;23.398;2023-04-23T07:12:59;93458.63;;;12.31;100.00
4415;BME280;2220;42.670;23.398;2023-04-23T07:15:25;93507.22;;;12.63;100.00
4415;BME280;2220;42.670;23.398;2023-04-23T07:17:51;93604.88;;;12.53;100.00
4415;BME280;2220;42.670;23.398;2023-04-23T07:20:16;93612.50;;;12.64;100.00
4415;BME280;2220;42.670;23.398;2023-04-23T07:22:42;93630.16;;;13.03;100.00
4415;BME280;2220;42.670;23.398;2023-04-23T07:25:07;93691.56;;;13.28;100.00
4415;BME280;2220;42.670;23.398;2023-04-23T07:27:33;93710.34;;;13.52;100.00
4415;BME280;2220;42.670;23.398;2023-04-23T07:29:59;93755.69;;;13.92;100.00
4415;BME280;2220;42.670;23.398;2023-04-23T07:32:26;93796.09;;;14.00;100.00
4415;BME280;2220;42.670;23.398;2023-04-23T07:34:53;93826.78;;;14.08;100.00
4415;BME280;2220;42.670;23.398;2023-04-23T07:37:18;93868.91;;;13.98;100.00
4415;BME280;2220;42.670;23.398;2023-04-23T07:39:45;93875.44;;;13.87;100.00
4415;BME280;2220;42.670;23.398;2023-04-23T07:42:12;93852.00;;;13.82;100.00
4415;BME280;2220;42.670;23.398;2023-04-23T07:44:37;93863.25;;;13.82;100.00
4415;BME280;2220;42.670;23.398;2023-04-23T07:47:03;93877.34;;;13.73;100.00
4415;BME280;2220;42.670;23.398;2023-04-23T07:49:28;93868.50;;;13.82;100.00
4415;BME280;2220;42.670;23.398;2023-04-23T07:51:54;93877.78;;;13.88;100.00
4415;BME280;2220;42.670;23.398;2023-04-23T07:54:19;93916.16;;;14.15;100.00
4415;BME280;2220;42.670;23.398;2023-04-23T07:56:45;93967.88;;;14.10;100.00
4415;BME280;2220;42.670;23.398;2023-04-23T07:59:10;93966.66;;;14.30;100.00
4415;BME280;2220;42.670;23.398;2023-04-23T08:01:36;93987.00;;;14.46;100.00
4415;BME280;2220;42.670;23.398;2023-04-23T08:04:01;93973.06;;;13.87;100.00
4415;BME280;2220;42.670;23.398;2023-04-23T08:06:27;93957.84;;;13.89;100.00
4415;BME280;2220;42.670;23.398;2023-04-23T08:08:55;93960.25;;;13.86;100.00
4415;BME280;2220;42.670;23.398;2023-04-23T08:11:21;93962.34;;;13.75;100.00
4415;BME280;2220;42.670;23.398;2023-04-23T08:13:47;93980.94;;;13.74;100.00
4415;BME280;2220;42.670;23.398;2023-04-23T08:16:13;93999.44;;;13.91;100.00
4415;BME280;2220;42.670;23.398;2023-04-23T08:18:40;94026.56;;;13.95;100.00
4415;BME280;2220;42.670;23.398;2023-04-23T08:21:05;94014.38;;;14.26;100.00
4415;BME280;2220;42.670;23.398;2023-04-23T08:23:31;94035.59;;;14.39;100.00
4415;BME280;2220;42.670;23.398;2023-04-23T08:25:57;94066.81;;;14.85;100.00
4415;BME280;2220;42.670;23.398;2023-04-23T08:28:22;94150.84;;;15.02;100.00
4415;BME280;2220;42.670;23.398;2023-04-23T08:30:47;94166.38;;;14.99;100.00
4415;BME280;2220;42.670;23.398;2023-04-23T08:33:13;94274.31;;;14.65;100.00
4415;BME280;2220;42.670;23.398;2023-04-23T08:35:39;94220.72;;;14.30;100.00
4415;BME280;2220;42.670;23.398;2023-04-23T08:38:04;94244.03;;;14.45;100.00
4415;BME280;2220;42.670;23.398;2023-04-23T08:40:31;94236.84;;;14.50;100.00
4415;BME280;2220;42.670;23.398;2023-04-23T08:43:00;94233.28;;;14.60;100.00
4415;BME280;2220;42.670;23.398;2023-04-23T08:45:26;94242.63;;;15.16;100.00
4415;BME280;2220;42.670;23.398;2023-04-23T08:47:52;94286.84;;;14.54;100.00
4415;BME280;2220;42.670;23.398;2023-04-23T08:50:18;94297.72;;;15.02;100.00
4415;BME280;2220;42.670;23.398;2023-04-23T08:52:54;94308.66;;;15.54;100.00
4415;BME280;2220;42.670;23.398;2023-04-23T08:55:21;94362.91;;;15.95;100.00
4415;BME280;2220;42.670;23.398;2023-04-23T08:57:48;94427.41;;;16.01;100.00
4415;BME280;2220;42.670;23.398;2023-04-23T09:00:16;94427.41;;;15.87;100.00
4415;BME280;2220;42.670;23.398;2023-04-23T09:02:47;94461.91;;;16.44;100.00
4415;BME280;2220;42.670;23.398;2023-04-23T09:05:13;94449.31;;;15.55;100.00
4415;BME280;2220;42.670;23.398;2023-04-23T09:07:40;94462.59;;;16.14;100.00
4415;BME280;2220;42.670;23.398;2023-04-23T09:10:06;94425.47;;;15.93;100.00
4415;BME280;2220;42.670;23.398;2023-04-23T09:12:37;94427.38;;;15.65;100.00
4415;BME280;2220;42.670;23.398;2023-04-23T09:15:04;94452.44;;;15.85;100.00
4415;BME280;2220;42.670;23.398;2023-04-23T09:17:42;94471.59;;;15.85;100.00
4415;BME280;2220;42.670;23.398;2023-04-23T09:20:08;94487.16;;;15.82;100.00
4415;BME280;2220;42.670;23.398;2023-04-23T09:22:45;94487.66;;;15.84;100.00
4415;BME280;2220;42.670;23.398;2023-04-23T09:25:12;94506.78;;;15.98;100.00
4415;BME280;2220;42.670;23.398;2023-04-23T09:27:39;94544.03;;;16.00;100.00
4415;BME280;2220;42.670;23.398;2023-04-23T09:30:06;94473.81;;;16.06;100.00
4415;BME280;2220;42.670;23.398;2023-04-23T09:32:40;94483.94;;;16.57;100.00
4415;BME280;2220;42.670;23.398;2023-04-23T09:35:12;94537.25;;;15.72;100.00
4415;BME280;2220;42.670;23.398;2023-04-23T09:37:41;94498.06;;;15.61;100.00
4415;BME280;2220;42.670;23.398;2023-04-23T09:40:08;94513.31;;;16.01;100.00
4415;BME280;2220;42.670;23.398;2023-04-23T09:42:37;94524.31;;;16.39;100.00
4415;BME280;2220;42.670;23.398;2023-04-23T09:45:05;94523.28;;;16.26;100.00
4415;BME280;2220;42.670;23.398;2023-04-23T09:47:37;94522.34;;;16.67;100.00
4415;BME280;2220;42.670;23.398;2023-04-23T09:50:04;94526.47;;;16.95;100.00
4415;BME280;2220;42.670;23.398;2023-04-23T09:52:36;94545.69;;;17.04;100.00
4415;BME280;2220;42.670;23.398;2023-04-23T09:55:02;94523.41;;;16.80;100.00
4415;BME280;2220;42.670;23.398;2023-04-23T09:57:30;94548.88;;;16.93;100.00
4415;BME280;2220;42.670;23.398;2023-04-23T10:00:14;94538.78;;;17.09;100.00
4415;BME280;2220;42.670;23.398;2023-04-23T10:02:50;94509.47;;;17.01;100.00
4415;BME280;2220;42.670;23.398;2023-04-23T10:05:18;94521.78;;;16.92;100.00
4415;BME280;2220;42.670;23.398;2023-04-23T10:07:44;94524.78;;;16.99;100.00
4415;BME280;2220;42.670;23.398;2023-04-23T10:10:17;94556.31;;;16.55;100.00
4415;BME280;2220;42.670;23.398;2023-04-23T10:12:43;94553.00;;;16.85;100.00
4415;BME280;2220;42.670;23.398;2023-04-23T10:15:10;94560.91;;;16.85;100.00
4415;BME280;2220;42.670;23.398;2023-04-23T10:17:36;94562.50;;;16.95;100.00
4415;BME280;2220;42.670;23.398;2023-04-23T10:20:04;94565.28;;;17.43;100.00
4415;BME280;2220;42.670;23.398;2023-04-23T10:22:32;94594.00;;;17.84;100.00
4415;BME280;2220;42.670;23.398;2023-04-23T10:25:00;94627.75;;;17.29;100.00
4415;BME280;2220;42.670;23.398;2023-04-23T10:27:29;94640.69;;;17.17;100.00
4415;BME280;2220;42.670;23.398;2023-04-23T10:29:56;94660.06;;;17.43;100.00
4415;BME280;2220;42.670;23.398;2023-04-23T10:32:22;94696.19;;;17.51;98.55
4415;BME280;2220;42.670;23.398;2023-04-23T10:34:48;94713.28;;;17.40;95.79
4415;BME280;2220;42.670;23.398;2023-04-23T10:37:13;94710.31;;;17.55;95.73
4415;BME280;2220;42.670;23.398;2023-04-23T10:39:43;94717.97;;;17.43;96.53
4415;BME280;2220;42.670;23.398;2023-04-23T10:42:08;94713.16;;;17.81;93.96
4415;BME280;2220;42.670;23.398;2023-04-23T10:44:38;94738.72;;;18.12;90.92
4415;BME280;2220;42.670;23.398;2023-04-23T10:47:06;94722.66;;;18.22;93.31
4415;BME280;2220;42.670;23.398;2023-04-23T10:49:37;94739.81;;;18.11;90.09
4415;BME280;2220;42.670;23.398;2023-04-23T10:54:33;94742.75;;;18.09;88.59
4415;BME280;2220;42.670;23.398;2023-04-23T10:57:05;94764.91;;;18.08;83.44
4415;BME280;2220;42.670;23.398;2023-04-23T10:59:33;94760.06;;;18.02;83.07
4415;BME280;2220;42.670;23.398;2023-04-23T11:02:10;94767.28;;;18.18;80.05
4415;BME280;2220;42.670;23.398;2023-04-23T11:04:41;94783.53;;;18.43;75.16
4415;BME280;2220;42.670;23.398;2023-04-23T11:07:10;94775.22;;;18.58;73.59
4415;BME280;2220;42.670;23.398;2023-04-23T11:09:40;94779.47;;;18.06;72.20
4415;BME280;2220;42.670;23.398;2023-04-23T11:12:11;94775.25;;;18.27;74.26
4415;BME280;2220;42.670;23.398;2023-04-23T11:17:05;94746.06;;;17.93;80.12
4415;BME280;2220;42.670;23.398;2023-04-23T11:19:38;94754.38;;;18.70;76.47
4415;BME280;2220;42.670;23.398;2023-04-23T11:22:13;94767.19;;;18.63;71.70
4415;BME280;2220;42.670;23.398;2023-04-23T11:24:42;94765.31;;;18.95;71.47
4415;BME280;2220;42.670;23.398;2023-04-23T11:27:15;94759.03;;;18.73;68.32
4415;BME280;2220;42.670;23.398;2023-04-23T11:29:44;94754.75;;;18.95;71.15
4415;BME280;2220;42.670;23.398;2023-04-23T11:32:10;94757.84;;;18.97;65.88
4415;BME280;2220;42.670;23.398;2023-04-23T11:34:43;94763.44;;;18.95;60.54
4415;BME280;2220;42.670;23.398;2023-04-23T11:37:18;94765.31;;;18.55;58.66
4415;BME280;2220;42.670;23.398;2023-04-23T11:39:44;94765.63;;;18.62;58.06
4415;BME280;2220;42.670;23.398;2023-04-23T11:42:15;94761.78;;;18.29;61.30
4415;BME280;2220;42.670;23.398;2023-04-23T11:44:43;94761.88;;;18.94;68.91
4415;BME280;2220;42.670;23.398;2023-04-23T11:47:11;94747.63;;;19.30;64.86
4415;BME280;2220;42.670;23.398;2023-04-23T11:49:38;94742.41;;;19.73;63.09
4415;BME280;2220;42.670;23.398;2023-04-23T11:52:04;94754.31;;;19.88;60.94
4415;BME280;2220;42.670;23.398;2023-04-23T11:54:29;94755.09;;;19.89;57.71
4415;BME280;2220;42.670;23.398;2023-04-23T11:56:56;94754.19;;;19.50;55.19
4415;BME280;2220;42.670;23.398;2023-04-23T11:59:22;94738.63;;;19.48;61.61
4415;BME280;2220;42.670;23.398;2023-04-23T12:01:50;94732.28;;;19.84;56.41
4415;BME280;2220;42.670;23.398;2023-04-23T12:04:36;94734.22;;;20.22;61.13
4415;BME280;2220;42.670;23.398;2023-04-23T12:07:03;94731.19;;;19.68;56.08
4415;BME280;2220;42.670;23.398;2023-04-23T12:09:28;94739.72;;;19.47;54.92
4415;BME280;2220;42.670;23.398;2023-04-23T12:11:55;94730.56;;;19.79;52.28
4415;BME280;2220;42.670;23.398;2023-04-23T12:14:30;94731.66;;;19.52;52.37
4415;BME280;2220;42.670;23.398;2023-04-23T12:16:58;94728.69;;;19.54;49.46
4415;BME280;2220;42.670;23.398;2023-04-23T12:19:32;94727.31;;;19.56;54.63
4415;BME280;2220;42.670;23.398;2023-04-23T12:22:02;94723.59;;;19.58;51.65
4415;BME280;2220;42.670;23.398;2023-04-23T12:24:48;94728.41;;;19.81;51.14
4415;BME280;2220;42.670;23.398;2023-04-23T12:27:18;94728.03;;;20.00;46.79
4415;BME280;2220;42.670;23.398;2023-04-23T12:29:44;94730.72;;;19.83;48.00
4415;BME280;2220;42.670;23.398;2023-04-23T12:32:12;94723.59;;;20.30;49.26
4415;BME280;2220;42.670;23.398;2023-04-23T12:34:51;94716.56;;;20.34;51.22
4415;BME280;2220;42.670;23.398;2023-04-23T12:37:17;94718.88;;;20.45;48.58
4415;BME280;2220;42.670;23.398;2023-04-23T12:39:43;94719.06;;;20.78;48.93
4415;BME280;2220;42.670;23.398;2023-04-23T12:42:08;94709.75;;;20.72;47.80
4415;BME280;2220;42.670;23.398;2023-04-23T12:44:36;94719.72;;;21.16;46.30
4415;BME280;2220;42.670;23.398;2023-04-23T12:47:04;94707.00;;;20.59;44.29
4415;BME280;2220;42.670;23.398;2023-04-23T12:49:30;94704.78;;;20.70;45.15
4415;BME280;2220;42.670;23.398;2023-04-23T12:51:57;94713.59;;;20.36;46.34
4415;BME280;2220;42.670;23.398;2023-04-23T12:54:35;94701.66;;;19.74;47.61
4415;BME280;2220;42.670;23.398;2023-04-23T12:57:02;94704.63;;;19.64;47.51
4415;BME280;2220;42.670;23.398;2023-04-23T12:59:29;94701.31;;;18.89;46.32
4415;BME280;2220;42.670;23.398;2023-04-23T13:01:55;94711.44;;;18.96;46.66
4415;BME280;2220;42.670;23.398;2023-04-23T13:04:20;94697.06;;;18.62;46.40
4415;BME280;2220;42.670;23.398;2023-04-23T13:06:46;94711.06;;;18.71;45.27
4415;BME280;2220;42.670;23.398;2023-04-23T13:09:11;94712.19;;;18.88;45.52
4415;BME280;2220;42.670;23.398;2023-04-23T13:11:37;94707.50;;;18.85;47.16